sensor_id;sensor_type;location;lat;lon;timestamp;pressure;altitude;pressure_sealevel;temperature;humidity
56006;BME280;41888;44.696;10.522;2022-09-12T00:00:04;100525.91;;;17.92;100.00
56006;BME280;41888;44.696;10.522;2022-09-12T00:02:30;100525.09;;;17.91;100.00
56006;BME280;41888;44.696;10.522;2022-09-12T00:04:56;100537.16;;;17.89;100.00
56006;BME280;41888;44.696;10.522;2022-09-12T00:07:22;100537.41;;;17.87;100.00
56006;BME280;41888;44.696;10.522;2022-09-12T00:09:48;100531.53;;;17.90;100.00
56006;BME280;41888;44.696;10.522;2022-09-12T00:12:15;100527.41;;;17.83;100.00
56006;BME280;41888;44.696;10.522;2022-09-12T00:14:41;100528.28;;;17.88;100.00
56006;BME280;41888;44.696;10.522;2022-09-12T00:17:07;100527.47;;;17.88;100.00
56006;BME280;41888;44.696;10.522;2022-09-12T00:19:33;100533.72;;;17.93;100.00
56006;BME280;41888;44.696;10.522;2022-09-12T00:21:59;100534.00;;;17.92;100.00
56006;BME280;41888;44.696;10.522;2022-09-12T00:24:26;100528.50;;;17.82;100.00
56006;BME280;41888;44.696;10.522;2022-09-12T00:26:52;100528.97;;;17.79;100.00
56006;BME280;41888;44.696;10.522;2022-09-12T00:29:20;100529.28;;;17.82;100.00
56006;BME280;41888;44.696;10.522;2022-09-12T00:31:47;100533.34;;;17.85;100.00
56006;BME280;41888;44.696;10.522;2022-09-12T00:34:13;100531.84;;;17.72;100.00
56006;BME280;41888;44.696;10.522;2022-09-12T00:36:40;100525.78;;;17.60;100.00
56006;BME280;41888;44.696;10.522;2022-09-12T00:39:07;100530.63;;;17.46;100.00
56006;BME280;41888;44.696;10.522;2022-09-12T00:41:38;100528.03;;;17.35;100.00
56006;BME280;41888;44.696;10.522;2022-09-12T00:46:49;100525.19;;;17.24;100.00
56006;BME280;41888;44.696;10.522;2022-09-12T00:52:17;100530.66;;;17.29;100.00
56006;BME280;41888;44.696;10.522;2022-09-12T00:58:44;100525.09;;;17.53;100.00
56006;BME280;41888;44.696;10.522;2022-09-12T01:00:50;100527.66;;;17.59;100.00
56006;BME280;41888;44.696;10.522;2022-09-12T01:03:19;100523.09;;;17.60;100.00
56006;BME280;41888;44.696;10.522;2022-09-12T01:06:15;100519.63;;;17.64;100.00
56006;BME280;41888;44.696;10.522;2022-09-12T01:08:44;100519.78;;;17.58;100.00
56006;BME280;41888;44.696;10.522;2022-09-12T01:11:12;100520.38;;;17.60;100.00
56006;BME280;41888;44.696;10.522;2022-09-12T01:13:39;100521.34;;;17.54;100.00
56006;BME280;41888;44.696;10.522;2022-09-12T01:16:07;100516.44;;;17.51;100.00
56006;BME280;41888;44.696;10.522;2022-09-12T01:21:43;100514.66;;;17.40;100.00
56006;BME280;41888;44.696;10.522;2022-09-12T01:29:58;100503.47;;;17.26;100.00
56006;BME280;41888;44.696;10.522;2022-09-12T01:38:17;100501.59;;;17.26;100.00
56006;BME280;41888;44.696;10.522;2022-09-12T01:41:11;100504.66;;;17.35;100.00
56006;BME280;41888;44.696;10.522;2022-09-12T01:46:20;100503.28;;;17.33;100.00
56006;BME280;41888;44.696;10.522;2022-09-12T01:51:32;100503.47;;;17.09;100.00
56006;BME280;41888;44.696;10.522;2022-09-12T01:54:29;100500.38;;;17.01;100.00
56006;BME280;41888;44.696;10.522;2022-09-12T01:57:00;100507.31;;;16.97;100.00
56006;BME280;41888;44.696;10.522;2022-09-12T01:59:56;100504.78;;;17.23;100.00
56006;BME280;41888;44.696;10.522;2022-09-12T02:05:10;100498.66;;;17.11;100.00
56006;BME280;41888;44.696;10.522;2022-09-12T02:07:43;100502.41;;;17.10;100.00
56006;BME280;41888;44.696;10.522;2022-09-12T02:10:15;100498.59;;;17.06;100.00
56006;BME280;41888;44.696;10.522;2022-09-12T02:12:55;100497.53;;;17.07;100.00
56006;BME280;41888;44.696;10.522;2022-09-12T02:15:31;100498.16;;;16.98;100.00
56006;BME280;41888;44.696;10.522;2022-09-12T02:18:00;100503.81;;;16.96;100.00
56006;BME280;41888;44.696;10.522;2022-09-12T02:20:32;100500.97;;;16.86;100.00
56006;BME280;41888;44.696;10.522;2022-09-12T02:23:00;100506.06;;;16.87;100.00
56006;BME280;41888;44.696;10.522;2022-09-12T02:25:28;100500.06;;;16.97;100.00
56006;BME280;41888;44.696;10.522;2022-09-12T02:28:02;100492.31;;;17.01;100.00
56006;BME280;41888;44.696;10.522;2022-09-12T02:30:38;100494.94;;;16.96;100.00
56006;BME280;41888;44.696;10.522;2022-09-12T02:33:17;100496.16;;;17.05;100.00
56006;BME280;41888;44.696;10.522;2022-09-12T02:35:53;100489.88;;;16.99;100.00
56006;BME280;41888;44.696;10.522;2022-09-12T02:38:43;100493.22;;;16.89;100.00
56006;BME280;41888;44.696;10.522;2022-09-12T02:41:12;100494.19;;;16.67;100.00
56006;BME280;41888;44.696;10.522;2022-09-12T02:43:39;100494.78;;;16.57;100.00
56006;BME280;41888;44.696;10.522;2022-09-12T02:46:47;100491.69;;;16.48;100.00
56006;BME280;41888;44.696;10.522;2022-09-12T02:49:05;100500.38;;;16.67;100.00
56006;BME280;41888;44.696;10.522;2022-09-12T02:51:31;100491.09;;;16.75;100.00
56006;BME280;41888;44.696;10.522;2022-09-12T02:53:58;100498.25;;;16.69;100.00
56006;BME280;41888;44.696;10.522;2022-09-12T02:56:29;100505.75;;;16.67;100.00
56006;BME280;41888;44.696;10.522;2022-09-12T02:59:01;100496.41;;;16.70;100.00
56006;BME280;41888;44.696;10.522;2022-09-12T03:18:01;100491.94;;;16.75;100.00
56006;BME280;41888;44.696;10.522;2022-09-12T03:20:46;100489.22;;;16.59;100.00
56006;BME280;41888;44.696;10.522;2022-09-12T03:26:01;100491.41;;;16.62;100.00
56006;BME280;41888;44.696;10.522;2022-09-12T03:28:33;100494.84;;;16.74;100.00
56006;BME280;41888;44.696;10.522;2022-09-12T03:31:00;100489.78;;;16.77;100.00
56006;BME280;41888;44.696;10.522;2022-09-12T03:33:36;100490.13;;;16.64;100.00
56006;BME280;41888;44.696;10.522;2022-09-12T03:36:02;100488.94;;;16.60;100.00
56006;BME280;41888;44.696;10.522;2022-09-12T03:38:28;100494.72;;;16.52;100.00
56006;BME280;41888;44.696;10.522;2022-09-12T03:40:55;100496.72;;;16.45;100.00
56006;BME280;41888;44.696;10.522;2022-09-12T03:43:21;100497.31;;;16.47;100.00
56006;BME280;41888;44.696;10.522;2022-09-12T03:45:50;100490.53;;;16.44;100.00
56006;BME280;41888;44.696;10.522;2022-09-12T03:48:19;100499.75;;;16.20;100.00
56006;BME280;41888;44.696;10.522;2022-09-12T03:50:45;100499.03;;;16.25;100.00
56006;BME280;41888;44.696;10.522;2022-09-12T03:53:11;100498.13;;;16.19;100.00
56006;BME280;41888;44.696;10.522;2022-09-12T03:55:38;100498.91;;;16.31;100.00
56006;BME280;41888;44.696;10.522;2022-09-12T03:58:04;100503.78;;;16.34;100.00
56006;BME280;41888;44.696;10.522;2022-09-12T04:00:30;100506.63;;;16.28;100.00
56006;BME280;41888;44.696;10.522;2022-09-12T04:02:57;100501.91;;;16.35;100.00
56006;BME280;41888;44.696;10.522;2022-09-12T04:05:24;100504.84;;;16.33;100.00
56006;BME280;41888;44.696;10.522;2022-09-12T04:07:51;100501.66;;;16.36;100.00
56006;BME280;41888;44.696;10.522;2022-09-12T04:10:17;100501.75;;;16.41;100.00
56006;BME280;41888;44.696;10.522;2022-09-12T04:12:44;100503.13;;;16.27;100.00
56006;BME280;41888;44.696;10.522;2022-09-12T04:15:10;100501.16;;;16.23;100.00
56006;BME280;41888;44.696;10.522;2022-09-12T04:17:36;100499.06;;;16.13;100.00
56006;BME280;41888;44.696;10.522;2022-09-12T04:20:02;100499.06;;;16.13;100.00
56006;BME280;41888;44.696;10.522;2022-09-12T04:22:29;100505.31;;;16.02;100.00
56006;BME280;41888;44.696;10.522;2022-09-12T04:24:56;100501.84;;;15.90;100.00
56006;BME280;41888;44.696;10.522;2022-09-12T04:27:23;100498.22;;;15.96;100.00
56006;BME280;41888;44.696;10.522;2022-09-12T04:29:49;100499.06;;;16.13;100.00
56006;BME280;41888;44.696;10.522;2022-09-12T04:32:15;100498.50;;;16.11;100.00
56006;BME280;41888;44.696;10.522;2022-09-12T04:34:41;100501.72;;;16.25;100.00
56006;BME280;41888;44.696;10.522;2022-09-12T04:37:07;100505.97;;;16.09;100.00
56006;BME280;41888;44.696;10.522;2022-09-12T04:39:33;100504.03;;;16.04;100.00
56006;BME280;41888;44.696;10.522;2022-09-12T04:41:59;100506.38;;;16.01;100.00
56006;BME280;41888;44.696;10.522;2022-09-12T04:44:25;100502.97;;;16.05;100.00
56006;BME280;41888;44.696;10.522;2022-09-12T04:46:51;100519.03;;;16.17;100.00
56006;BME280;41888;44.696;10.522;2022-09-12T04:49:18;100512.97;;;16.10;100.00
56006;BME280;41888;44.696;10.522;2022-09-12T04:51:44;100511.75;;;16.01;100.00
56006;BME280;41888;44.696;10.522;2022-09-12T04:54:16;100512.06;;;16.04;100.00
56006;BME280;41888;44.696;10.522;2022-09-12T04:56:45;100511.94;;;16.11;100.00
56006;BME280;41888;44.696;10.522;2022-09-12T04:59:13;100518.22;;;16.17;100.00
56006;BME280;41888;44.696;10.522;2022-09-12T05:01:41;100511.81;;;16.18;100.00
56006;BME280;41888;44.696;10.522;2022-09-12T05:04:09;100513.19;;;16.20;100.00
56006;BME280;41888;44.696;10.522;2022-09-12T05:06:36;100511.34;;;16.09;100.00
56006;BME280;41888;44.696;10.522;2022-09-12T05:09:05;100519.31;;;15.92;100.00
56006;BME280;41888;44.696;10.522;2022-09-12T05:11:34;100517.66;;;16.03;100.00
56006;BME280;41888;44.696;10.522;2022-09-12T05:14:01;100517.97;;;16.46;100.00
56006;BME280;41888;44.696;10.522;2022-09-12T05:16:27;100518.47;;;17.05;100.00
56006;BME280;41888;44.696;10.522;2022-09-12T05:18:55;100525.41;;;17.73;100.00
56006;BME280;41888;44.696;10.522;2022-09-12T05:21:23;100523.94;;;18.31;100.00
56006;BME280;41888;44.696;10.522;2022-09-12T05:23:51;100522.16;;;18.95;100.00
56006;BME280;41888;44.696;10.522;2022-09-12T05:26:18;100533.44;;;19.24;100.00
56006;BME280;41888;44.696;10.522;2022-09-12T05:28:46;100532.75;;;19.86;100.00
56006;BME280;41888;44.696;10.522;2022-09-12T05:31:15;100544.06;;;20.45;96.73
56006;BME280;41888;44.696;10.522;2022-09-12T05:33:43;100543.84;;;20.61;95.45
56006;BME280;41888;44.696;10.522;2022-09-12T05:36:12;100549.25;;;20.97;93.41
56006;BME280;41888;44.696;10.522;2022-09-12T05:38:39;100557.81;;;21.85;87.64
56006;BME280;41888;44.696;10.522;2022-09-12T05:41:08;100563.09;;;22.74;80.81
56006;BME280;41888;44.696;10.522;2022-09-12T05:43:37;100569.94;;;22.67;81.48
56006;BME280;41888;44.696;10.522;2022-09-12T05:46:08;100563.94;;;22.21;82.59
56006;BME280;41888;44.696;10.522;2022-09-12T05:48:39;100571.09;;;22.51;82.58
56006;BME280;41888;44.696;10.522;2022-09-12T05:51:09;100570.53;;;21.89;86.03
56006;BME280;41888;44.696;10.522;2022-09-12T05:53:36;100572.28;;;21.40;88.88
56006;BME280;41888;44.696;10.522;2022-09-12T05:56:14;100573.47;;;22.13;85.65
56006;BME280;41888;44.696;10.522;2022-09-12T05:58:43;100581.94;;;23.00;81.76
56006;BME280;41888;44.696;10.522;2022-09-12T06:01:15;100577.03;;;23.88;76.67
56006;BME280;41888;44.696;10.522;2022-09-12T06:03:44;100575.34;;;24.96;72.03
56006;BME280;41888;44.696;10.522;2022-09-12T06:06:11;100583.75;;;25.32;70.37
56006;BME280;41888;44.696;10.522;2022-09-12T06:08:43;100579.44;;;26.68;65.11
56006;BME280;41888;44.696;10.522;2022-09-12T06:11:12;100579.84;;;27.19;61.79
56006;BME280;41888;44.696;10.522;2022-09-12T06:13:40;100577.09;;;26.75;63.75
56006;BME280;41888;44.696;10.522;2022-09-12T06:16:18;100569.66;;;28.04;59.73
56006;BME280;41888;44.696;10.522;2022-09-12T06:18:51;100577.84;;;27.95;59.88
56006;BME280;41888;44.696;10.522;2022-09-12T06:21:19;100581.25;;;28.01;59.52
56006;BME280;41888;44.696;10.522;2022-09-12T06:23:46;100583.31;;;28.69;57.72
56006;BME280;41888;44.696;10.522;2022-09-12T06:26:14;100584.78;;;29.73;54.38
56006;BME280;41888;44.696;10.522;2022-09-12T06:28:42;100579.44;;;30.86;51.58
56006;BME280;41888;44.696;10.522;2022-09-12T06:31:22;100579.97;;;31.66;48.48
56006;BME280;41888;44.696;10.522;2022-09-12T06:33:51;100579.97;;;31.66;47.63
56006;BME280;41888;44.696;10.522;2022-09-12T06:36:20;100578.44;;;31.56;47.81
56006;BME280;41888;44.696;10.522;2022-09-12T06:38:52;100577.03;;;30.84;48.48
56006;BME280;41888;44.696;10.522;2022-09-12T06:41:18;100581.81;;;31.41;48.25
56006;BME280;41888;44.696;10.522;2022-09-12T06:43:44;100581.25;;;33.09;45.18
56006;BME280;41888;44.696;10.522;2022-09-12T06:46:11;100586.13;;;33.43;42.91
56006;BME280;41888;44.696;10.522;2022-09-12T06:48:38;100583.22;;;33.52;42.59
56006;BME280;41888;44.696;10.522;2022-09-12T06:51:10;100590.00;;;33.70;43.14
56006;BME280;41888;44.696;10.522;2022-09-12T06:53:37;100585.97;;;33.99;41.76
56006;BME280;41888;44.696;10.522;2022-09-12T06:56:05;100597.56;;;34.05;40.78
56006;BME280;41888;44.696;10.522;2022-09-12T06:58:32;100585.91;;;34.65;39.79
56006;BME280;41888;44.696;10.522;2022-09-12T07:01:10;100586.56;;;34.59;39.79
56006;BME280;41888;44.696;10.522;2022-09-12T07:03:38;100575.91;;;33.91;40.68
56006;BME280;41888;44.696;10.522;2022-09-12T07:06:12;100581.25;;;32.81;42.90
56006;BME280;41888;44.696;10.522;2022-09-12T07:08:39;100588.81;;;32.08;44.96
56006;BME280;41888;44.696;10.522;2022-09-12T07:11:14;100588.34;;;31.24;46.43
56006;BME280;41888;44.696;10.522;2022-09-12T07:13:42;100584.59;;;29.78;49.22
56006;BME280;41888;44.696;10.522;2022-09-12T07:16:09;100569.00;;;28.55;53.62
56006;BME280;41888;44.696;10.522;2022-09-12T07:18:36;100573.28;;;28.30;55.52
56006;BME280;41888;44.696;10.522;2022-09-12T07:21:12;100573.03;;;27.61;58.63
56006;BME280;41888;44.696;10.522;2022-09-12T07:23:39;100573.94;;;27.04;60.82
56006;BME280;41888;44.696;10.522;2022-09-12T07:26:09;100575.66;;;26.91;61.66
56006;BME280;41888;44.696;10.522;2022-09-12T07:28:35;100576.13;;;26.57;62.48
56006;BME280;41888;44.696;10.522;2022-09-12T07:31:14;100579.91;;;26.34;64.77
56006;BME280;41888;44.696;10.522;2022-09-12T07:33:41;100570.13;;;26.05;63.62
56006;BME280;41888;44.696;10.522;2022-09-12T07:36:10;100574.16;;;26.08;63.30
56006;BME280;41888;44.696;10.522;2022-09-12T07:38:40;100567.78;;;25.58;66.07
56006;BME280;41888;44.696;10.522;2022-09-12T07:43:37;100574.03;;;24.94;67.38
56006;BME280;41888;44.696;10.522;2022-09-12T07:46:04;100573.66;;;24.63;69.43
56006;BME280;41888;44.696;10.522;2022-09-12T07:48:30;100577.47;;;24.43;70.15
56006;BME280;41888;44.696;10.522;2022-09-12T07:51:04;100577.16;;;24.26;71.54
56006;BME280;41888;44.696;10.522;2022-09-12T07:53:36;100577.34;;;24.53;70.96
56006;BME280;41888;44.696;10.522;2022-09-12T07:56:04;100579.69;;;24.17;73.20
56006;BME280;41888;44.696;10.522;2022-09-12T07:58:32;100573.28;;;24.32;74.55
56006;BME280;41888;44.696;10.522;2022-09-12T08:01:09;100573.44;;;24.40;73.07
56006;BME280;41888;44.696;10.522;2022-09-12T08:03:41;100584.97;;;24.70;72.33
56006;BME280;41888;44.696;10.522;2022-09-12T08:06:12;100582.63;;;24.82;72.31
56006;BME280;41888;44.696;10.522;2022-09-12T08:08:39;100577.03;;;24.36;73.53
56006;BME280;41888;44.696;10.522;2022-09-12T08:11:11;100576.53;;;24.71;72.98
56006;BME280;41888;44.696;10.522;2022-09-12T08:13:39;100575.28;;;24.82;71.94
56006;BME280;41888;44.696;10.522;2022-09-12T08:16:12;100579.31;;;25.04;71.06
56006;BME280;41888;44.696;10.522;2022-09-12T08:18:39;100572.63;;;25.29;69.07
56006;BME280;41888;44.696;10.522;2022-09-12T08:21:08;100575.16;;;25.25;69.81
56006;BME280;41888;44.696;10.522;2022-09-12T08:23:36;100581.53;;;25.34;69.49
56006;BME280;41888;44.696;10.522;2022-09-12T08:26:04;100574.50;;;25.47;69.23
56006;BME280;41888;44.696;10.522;2022-09-12T08:28:33;100571.81;;;25.28;69.17
56006;BME280;41888;44.696;10.522;2022-09-12T08:31:01;100577.88;;;25.25;69.21
56006;BME280;41888;44.696;10.522;2022-09-12T08:33:28;100589.41;;;25.49;67.93
56006;BME280;41888;44.696;10.522;2022-09-12T08:36:16;100580.06;;;25.23;68.62
56006;BME280;41888;44.696;10.522;2022-09-12T08:38:44;100594.13;;;25.62;68.66
56006;BME280;41888;44.696;10.522;2022-09-12T08:41:28;100592.63;;;25.70;68.73
56006;BME280;41888;44.696;10.522;2022-09-12T08:44:18;100585.97;;;25.44;68.89
56006;BME280;41888;44.696;10.522;2022-09-12T08:51:53;100573.84;;;25.69;69.89
56006;BME280;41888;44.696;10.522;2022-09-12T08:54:27;100585.06;;;26.08;69.11
56006;BME280;41888;44.696;10.522;2022-09-12T08:57:02;100581.34;;;26.31;67.39
56006;BME280;41888;44.696;10.522;2022-09-12T08:59:37;100581.81;;;25.92;68.29
56006;BME280;41888;44.696;10.522;2022-09-12T09:05:23;100580.44;;;25.95;68.58
56006;BME280;41888;44.696;10.522;2022-09-12T09:08:10;100584.69;;;26.01;67.31
56006;BME280;41888;44.696;10.522;2022-09-12T09:16:18;100587.28;;;26.06;67.49
56006;BME280;41888;44.696;10.522;2022-09-12T09:18:47;100581.34;;;25.90;67.09
56006;BME280;41888;44.696;10.522;2022-09-12T09:21:22;100585.53;;;26.51;65.72
56006;BME280;41888;44.696;10.522;2022-09-12T09:24:02;100581.13;;;26.14;65.98
56006;BME280;41888;44.696;10.522;2022-09-12T09:26:40;100572.47;;;25.85;66.83
56006;BME280;41888;44.696;10.522;2022-09-12T09:29:19;100585.19;;;26.30;66.66
56006;BME280;41888;44.696;10.522;2022-09-12T09:31:52;100578.28;;;26.46;65.69
56006;BME280;41888;44.696;10.522;2022-09-12T09:39:44;100576.63;;;26.95;61.88
56006;BME280;41888;44.696;10.522;2022-09-12T09:45:17;100574.72;;;26.82;62.75
56006;BME280;41888;44.696;10.522;2022-09-12T09:50:30;100572.09;;;27.13;62.04
56006;BME280;41888;44.696;10.522;2022-09-12T09:52:59;100574.25;;;27.24;61.05
56006;BME280;41888;44.696;10.522;2022-09-12T09:55:39;100568.03;;;27.94;59.24
56006;BME280;41888;44.696;10.522;2022-09-12T09:58:06;100567.22;;;28.59;58.06
56006;BME280;41888;44.696;10.522;2022-09-12T10:00:36;100562.03;;;28.32;57.60
56006;BME280;41888;44.696;10.522;2022-09-12T10:05:47;100558.03;;;28.98;56.11
56006;BME280;41888;44.696;10.522;2022-09-12T10:08:25;100554.78;;;28.36;58.09
56006;BME280;41888;44.696;10.522;2022-09-12T10:10:57;100565.28;;;27.86;60.15
56006;BME280;41888;44.696;10.522;2022-09-12T10:13:36;100561.44;;;27.95;61.03
56006;BME280;41888;44.696;10.522;2022-09-12T10:16:06;100553.91;;;27.61;60.61
56006;BME280;41888;44.696;10.522;2022-09-12T10:18:42;100554.72;;;27.40;61.31
56006;BME280;41888;44.696;10.522;2022-09-12T10:21:42;100545.22;;;28.07;59.79
56006;BME280;41888;44.696;10.522;2022-09-12T10:24:20;100546.94;;;28.60;57.24
56006;BME280;41888;44.696;10.522;2022-09-12T10:26:53;100542.91;;;28.49;56.85
56006;BME280;41888;44.696;10.522;2022-09-12T10:29:29;100545.84;;;28.04;58.37
56006;BME280;41888;44.696;10.522;2022-09-12T10:31:58;100545.88;;;28.13;58.05
56006;BME280;41888;44.696;10.522;2022-09-12T10:34:36;100539.50;;;28.61;56.97
56006;BME280;41888;44.696;10.522;2022-09-12T10:37:08;100538.38;;;28.87;55.89
56006;BME280;41888;44.696;10.522;2022-09-12T10:39:37;100527.56;;;29.00;57.39
56006;BME280;41888;44.696;10.522;2022-09-12T10:42:04;100526.78;;;28.82;56.11
56006;BME280;41888;44.696;10.522;2022-09-12T10:44:33;100526.16;;;28.85;56.31
56006;BME280;41888;44.696;10.522;2022-09-12T10:47:17;100526.06;;;29.28;55.15
56006;BME280;41888;44.696;10.522;2022-09-12T10:49:44;100521.56;;;29.32;55.00
56006;BME280;41888;44.696;10.522;2022-09-12T10:52:24;100520.16;;;29.00;54.83
56006;BME280;41888;44.696;10.522;2022-09-12T10:54:51;100513.84;;;29.08;54.38
56006;BME280;41888;44.696;10.522;2022-09-12T10:57:31;100524.00;;;29.16;54.94
56006;BME280;41888;44.696;10.522;2022-09-12T11:00:14;100514.53;;;28.62;54.56
56006;BME280;41888;44.696;10.522;2022-09-12T11:05:42;100513.56;;;28.24;55.09
56006;BME280;41888;44.696;10.522;2022-09-12T11:14:12;100504.31;;;29.31;54.40
56006;BME280;41888;44.696;10.522;2022-09-12T11:16:59;100504.56;;;28.83;54.27
56006;BME280;41888;44.696;10.522;2022-09-12T11:22:55;100511.63;;;27.59;56.10
56006;BME280;41888;44.696;10.522;2022-09-12T11:25:22;100506.00;;;28.29;55.63
56006;BME280;41888;44.696;10.522;2022-09-12T11:28:16;100506.19;;;28.50;54.51
56006;BME280;41888;44.696;10.522;2022-09-12T11:33:40;100496.47;;;29.13;52.59
56006;BME280;41888;44.696;10.522;2022-09-12T11:36:16;100496.53;;;28.78;53.60
56006;BME280;41888;44.696;10.522;2022-09-12T11:43:54;100487.50;;;28.52;52.66
56006;BME280;41888;44.696;10.522;2022-09-12T11:46:28;100492.34;;;28.81;51.70
56006;BME280;41888;44.696;10.522;2022-09-12T11:52:00;100485.69;;;29.54;47.86
56006;BME280;41888;44.696;10.522;2022-09-12T11:54:48;100480.31;;;29.20;49.01
56006;BME280;41888;44.696;10.522;2022-09-12T12:02:43;100473.88;;;29.16;49.19
56006;BME280;41888;44.696;10.522;2022-09-12T12:05:25;100466.03;;;29.82;47.81
56006;BME280;41888;44.696;10.522;2022-09-12T12:07:57;100469.41;;;29.78;46.03
56006;BME280;41888;44.696;10.522;2022-09-12T12:13:00;100469.41;;;29.03;45.81
56006;BME280;41888;44.696;10.522;2022-09-12T12:15:29;100460.72;;;29.76;45.19
56006;BME280;41888;44.696;10.522;2022-09-12T12:18:06;100465.38;;;29.55;45.52
56006;BME280;41888;44.696;10.522;2022-09-12T12:20:33;100458.28;;;29.54;45.96
56006;BME280;41888;44.696;10.522;2022-09-12T12:23:00;100463.47;;;29.76;45.96
56006;BME280;41888;44.696;10.522;2022-09-12T12:25:39;100459.97;;;29.67;45.34
56006;BME280;41888;44.696;10.522;2022-09-12T12:28:06;100457.69;;;29.69;44.43
56006;BME280;41888;44.696;10.522;2022-09-12T12:38:47;100448.50;;;29.45;44.49
56006;BME280;41888;44.696;10.522;2022-09-12T12:43:47;100449.31;;;29.45;44.14
56006;BME280;41888;44.696;10.522;2022-09-12T12:46:15;100449.38;;;29.87;42.91
56006;BME280;41888;44.696;10.522;2022-09-12T12:49:00;100435.81;;;29.90;42.02
56006;BME280;41888;44.696;10.522;2022-09-12T12:57:39;100427.34;;;29.07;45.14
56006;BME280;41888;44.696;10.522;2022-09-12T13:03:16;100431.78;;;29.58;43.85
56006;BME280;41888;44.696;10.522;2022-09-12T13:05:50;100422.25;;;29.64;43.31
56006;BME280;41888;44.696;10.522;2022-09-12T13:10:52;100415.72;;;29.48;43.19
56006;BME280;41888;44.696;10.522;2022-09-12T13:14:34;100416.28;;;29.24;43.99
56006;BME280;41888;44.696;10.522;2022-09-12T13:16:57;100412.44;;;29.84;43.71
56006;BME280;41888;44.696;10.522;2022-09-12T13:19:35;100421.91;;;30.16;42.42
56006;BME280;41888;44.696;10.522;2022-09-12T13:22:05;100411.44;;;30.30;41.53
56006;BME280;41888;44.696;10.522;2022-09-12T13:24:32;100408.59;;;30.06;41.51
56006;BME280;41888;44.696;10.522;2022-09-12T13:26:59;100404.31;;;29.88;42.52
56006;BME280;41888;44.696;10.522;2022-09-12T13:29:26;100407.53;;;30.31;41.65
56006;BME280;41888;44.696;10.522;2022-09-12T13:31:56;100408.88;;;30.25;40.85
56006;BME280;41888;44.696;10.522;2022-09-12T13:34:53;100400.63;;;29.92;41.70
56006;BME280;41888;44.696;10.522;2022-09-12T13:37:36;100404.72;;;29.19;42.88
56006;BME280;41888;44.696;10.522;2022-09-12T13:45:39;100384.44;;;29.49;43.44
56006;BME280;41888;44.696;10.522;2022-09-12T13:48:17;100381.34;;;29.51;42.98
56006;BME280;41888;44.696;10.522;2022-09-12T13:50:55;100382.13;;;29.60;42.60
56006;BME280;41888;44.696;10.522;2022-09-12T13:53:29;100375.50;;;29.61;41.55
56006;BME280;41888;44.696;10.522;2022-09-12T13:56:00;100376.84;;;29.55;41.76
56006;BME280;41888;44.696;10.522;2022-09-12T13:58:31;100372.34;;;29.50;40.77
56006;BME280;41888;44.696;10.522;2022-09-12T14:03:56;100376.34;;;30.03;40.44
56006;BME280;41888;44.696;10.522;2022-09-12T14:06:50;100363.22;;;30.08;41.04
56006;BME280;41888;44.696;10.522;2022-09-12T14:09:29;100362.06;;;30.42;40.47
56006;BME280;41888;44.696;10.522;2022-09-12T14:11:56;100361.91;;;30.59;40.92
56006;BME280;41888;44.696;10.522;2022-09-12T14:14:34;100358.63;;;30.33;42.70
56006;BME280;41888;44.696;10.522;2022-09-12T14:17:15;100353.78;;;30.30;42.78
56006;BME280;41888;44.696;10.522;2022-09-12T14:19:41;100352.47;;;29.53;43.75
56006;BME280;41888;44.696;10.522;2022-09-12T14:22:11;100352.00;;;29.72;43.25
56006;BME280;41888;44.696;10.522;2022-09-12T14:24:48;100349.53;;;29.37;43.57
56006;BME280;41888;44.696;10.522;2022-09-12T14:27:28;100345.84;;;29.25;43.90
56006;BME280;41888;44.696;10.522;2022-09-12T14:30:06;100340.44;;;29.66;43.65
56006;BME280;41888;44.696;10.522;2022-09-12T14:32:34;100340.09;;;29.47;44.17
56006;BME280;41888;44.696;10.522;2022-09-12T14:35:26;100333.31;;;29.24;44.80
56006;BME280;41888;44.696;10.522;2022-09-12T14:37:52;100330.06;;;29.51;44.05
56006;BME280;41888;44.696;10.522;2022-09-12T14:40:21;100332.06;;;29.92;42.38
56006;BME280;41888;44.696;10.522;2022-09-12T14:42:48;100329.34;;;30.04;42.19
56006;BME280;41888;44.696;10.522;2022-09-12T14:45:35;100326.03;;;30.44;41.56
56006;BME280;41888;44.696;10.522;2022-09-12T14:48:02;100327.53;;;29.88;42.33
56006;BME280;41888;44.696;10.522;2022-09-12T14:50:34;100319.84;;;29.81;43.28
56006;BME280;41888;44.696;10.522;2022-09-12T14:53:23;100315.78;;;28.87;44.44
56006;BME280;41888;44.696;10.522;2022-09-12T14:58:32;100314.63;;;29.47;43.81
56006;BME280;41888;44.696;10.522;2022-09-12T15:06:23;100308.41;;;29.79;42.67
56006;BME280;41888;44.696;10.522;2022-09-12T15:08:53;100314.22;;;29.77;42.55
56006;BME280;41888;44.696;10.522;2022-09-12T15:11:20;100310.75;;;29.68;42.24
56006;BME280;41888;44.696;10.522;2022-09-12T15:13:46;100305.00;;;29.82;42.21
56006;BME280;41888;44.696;10.522;2022-09-12T15:16:13;100313.78;;;29.75;42.25
56006;BME280;41888;44.696;10.522;2022-09-12T15:18:39;100307.69;;;29.70;42.12
56006;BME280;41888;44.696;10.522;2022-09-12T15:21:07;100312.25;;;29.45;42.87
56006;BME280;41888;44.696;10.522;2022-09-12T15:23:49;100312.88;;;29.42;42.57
56006;BME280;41888;44.696;10.522;2022-09-12T15:26:23;100312.03;;;29.71;42.38
56006;BME280;41888;44.696;10.522;2022-09-12T15:28:52;100311.56;;;29.90;41.58